createdAt,value
2023-10-10T00:01:47.058Z,9.37
2023-10-10T00:04:14.146Z,11.33
2023-10-10T00:06:41.926Z,10.77
2023-10-10T00:09:13.187Z,12.20
2023-10-10T00:11:42.239Z,11.70
2023-10-10T00:14:19.353Z,12.07
2023-10-10T00:16:56.381Z,13.07
2023-10-10T00:19:26.148Z,13.27
2023-10-10T00:21:53.156Z,11.97
2023-10-10T00:24:31.875Z,10.93
2023-10-10T00:27:14.478Z,12.63
2023-10-10T00:29:45.353Z,11.83
2023-10-10T00:32:24.327Z,11.10
2023-10-10T00:34:52.273Z,9.20
2023-10-10T00:37:27.358Z,9.77
2023-10-10T00:39:54.332Z,9.80
2023-10-10T00:42:29.100Z,10.37
2023-10-10T00:44:56.016Z,9.57
2023-10-10T00:47:26.485Z,8.73
2023-10-10T00:49:54.421Z,10.27
2023-10-10T00:52:22.043Z,8.60
2023-10-10T00:54:51.228Z,9.27
2023-10-10T00:57:23.106Z,9.97
2023-10-10T00:59:56.029Z,9.37
2023-10-10T01:02:24.197Z,9.77
2023-10-10T01:04:56.897Z,9.10
2023-10-10T01:07:26.842Z,9.00
2023-10-10T01:09:58.098Z,10.30
2023-10-10T01:12:27.365Z,10.37
2023-10-10T01:14:56.244Z,11.40
2023-10-10T01:17:31.211Z,10.27
2023-10-10T01:20:22.138Z,9.70
2023-10-10T01:22:50.235Z,11.80
2023-10-10T01:25:36.141Z,10.90
2023-10-10T01:28:07.188Z,11.50
2023-10-10T01:30:52.690Z,12.07
2023-10-10T01:33:24.896Z,11.53
2023-10-10T01:35:57.152Z,12.17
2023-10-10T01:38:57.996Z,12.77
2023-10-10T01:41:32.877Z,12.10
2023-10-10T01:44:20.624Z,11.87
2023-10-10T01:46:48.153Z,14.60
2023-10-10T01:49:17.136Z,12.70
2023-10-10T01:51:45.153Z,12.33
2023-10-10T01:54:35.498Z,13.30
2023-10-10T01:57:07.788Z,13.33
2023-10-10T01:59:40.220Z,12.40
2023-10-10T02:02:11.600Z,13.63
2023-10-10T02:04:40.985Z,15.13
2023-10-10T02:07:15.616Z,13.50
2023-10-10T02:09:44.951Z,14.10
2023-10-10T02:12:17.277Z,14.60
2023-10-10T02:14:44.659Z,13.53
2023-10-10T02:17:30.682Z,14.33
2023-10-10T02:20:26.776Z,14.23
2023-10-10T02:23:14.813Z,14.83
2023-10-10T02:25:47.344Z,13.87
2023-10-10T02:28:17.372Z,13.23
2023-10-10T02:30:47.413Z,15.20
2023-10-10T02:33:21.138Z,14.73
2023-10-10T02:35:55.919Z,14.37
2023-10-10T02:38:41.383Z,13.33
2023-10-10T02:41:36.525Z,14.93
2023-10-10T02:44:03.529Z,13.57
2023-10-10T02:46:37.159Z,12.57
2023-10-10T02:49:31.153Z,13.43
2023-10-10T02:51:58.585Z,13.50
2023-10-10T02:54:28.141Z,11.63
2023-10-10T02:56:59.698Z,12.40
2023-10-10T02:59:34.381Z,12.30
2023-10-10T03:02:09.763Z,12.20
2023-10-10T03:04:55.588Z,13.97
2023-10-10T03:07:30.498Z,12.63
2023-10-10T03:10:08.991Z,13.90
2023-10-10T03:12:39.251Z,13.77
2023-10-10T03:15:15.618Z,14.70
2023-10-10T03:18:02.093Z,14.47
2023-10-10T03:20:32.993Z,13.67
2023-10-10T03:23:07.198Z,11.80
2023-10-10T03:25:48.991Z,12.70
2023-10-10T03:28:21.099Z,11.63
2023-10-10T03:31:11.906Z,12.13
2023-10-10T03:33:46.117Z,14.20
2023-10-10T03:36:15.025Z,14.40
2023-10-10T03:38:49.509Z,15.63
2023-10-10T03:41:36.398Z,12.87
2023-10-10T03:44:21.894Z,12.57
2023-10-10T03:47:01.209Z,12.23
2023-10-10T03:49:48.400Z,16.23
2023-10-10T03:52:34.561Z,14.37
2023-10-10T03:55:20.484Z,14.07
2023-10-10T03:58:05.909Z,13.53
2023-10-10T04:00:51.505Z,11.87
2023-10-10T04:03:36.955Z,12.50
2023-10-10T04:06:23.628Z,12.60
2023-10-10T04:09:09.561Z,11.17
2023-10-10T04:11:55.154Z,13.77
2023-10-10T04:14:40.869Z,12.60
2023-10-10T04:17:26.327Z,11.27
2023-10-10T04:20:12.156Z,12.37
2023-10-10T04:22:57.862Z,12.43
2023-10-10T04:25:43.493Z,12.80
2023-10-10T04:28:29.534Z,11.63
2023-10-10T04:31:15.041Z,11.77
2023-10-10T04:34:00.759Z,11.10
2023-10-10T04:36:46.276Z,13.07
2023-10-10T04:39:31.395Z,12.90
2023-10-10T04:42:16.712Z,11.50
2023-10-10T04:45:02.151Z,12.10
2023-10-10T04:47:47.964Z,12.37
2023-10-10T04:50:33.626Z,13.17
2023-10-10T04:53:19.319Z,12.10
2023-10-10T04:56:04.813Z,12.03
2023-10-10T04:58:50.274Z,11.93
2023-10-10T05:01:35.728Z,12.20
2023-10-10T05:04:21.261Z,12.13
2023-10-10T05:07:06.919Z,11.20
2023-10-10T05:09:54.344Z,10.10
2023-10-10T05:12:40.012Z,11.10
2023-10-10T05:15:26.320Z,11.70
2023-10-10T05:18:11.940Z,10.83
2023-10-10T05:20:59.954Z,11.53
2023-10-10T05:23:36.088Z,11.17
2023-10-10T05:26:07.125Z,11.73
2023-10-10T05:28:34.480Z,11.23
2023-10-10T05:31:04.367Z,11.43
2023-10-10T05:33:32.163Z,11.17
2023-10-10T05:36:00.650Z,11.73
2023-10-10T05:38:27.948Z,12.20
2023-10-10T05:40:55.672Z,11.47
2023-10-10T05:43:28.068Z,12.03
2023-10-10T05:45:55.695Z,11.87
2023-10-10T05:48:23.437Z,10.97
2023-10-10T05:50:50.510Z,11.60
2023-10-10T05:53:18.638Z,13.60
2023-10-10T05:55:54.692Z,13.73
2023-10-10T05:58:24.611Z,12.40
2023-10-10T06:00:51.469Z,12.77
2023-10-10T06:03:18.856Z,12.67
2023-10-10T06:05:46.178Z,13.33
2023-10-10T06:08:16.473Z,12.40
2023-10-10T06:10:43.536Z,12.43
2023-10-10T06:13:12.863Z,11.40
2023-10-10T06:15:40.858Z,12.20
2023-10-10T06:18:13.943Z,10.90
2023-10-10T06:20:54.223Z,11.53
2023-10-10T06:23:27.512Z,12.30
2023-10-10T06:26:01.835Z,13.13
2023-10-10T06:28:30.736Z,12.50
2023-10-10T06:31:01.328Z,12.80
2023-10-10T06:33:31.097Z,12.40
2023-10-10T06:36:24.446Z,12.27
2023-10-10T06:39:06.940Z,12.87
2023-10-10T06:41:40.453Z,11.73
2023-10-10T06:44:19.146Z,12.60
2023-10-10T06:46:50.156Z,11.73
2023-10-10T06:49:17.317Z,12.30
2023-10-10T06:51:44.441Z,12.30
2023-10-10T06:54:28.932Z,13.90
2023-10-10T06:57:02.347Z,11.90
2023-10-10T06:59:30.385Z,12.40
2023-10-10T07:02:14.151Z,11.23
2023-10-10T07:04:42.136Z,11.63
2023-10-10T07:07:10.446Z,12.33
2023-10-10T07:09:43.731Z,10.83
2023-10-10T07:12:11.811Z,11.00
2023-10-10T07:14:45.358Z,10.53
2023-10-10T07:17:13.844Z,10.33
2023-10-10T07:20:03.006Z,8.83
2023-10-10T07:22:35.952Z,8.93
2023-10-10T07:25:18.801Z,8.30
2023-10-10T07:27:46.198Z,8.10
2023-10-10T07:30:19.729Z,8.40
2023-10-10T07:32:50.431Z,7.40
2023-10-10T07:35:18.975Z,7.87
2023-10-10T07:37:46.928Z,8.90
2023-10-10T07:40:17.711Z,8.00
2023-10-10T07:42:51.880Z,8.30
2023-10-10T07:45:29.526Z,8.37
2023-10-10T07:47:59.394Z,8.73
2023-10-10T07:50:36.204Z,7.93
2023-10-10T07:53:08.154Z,7.60
2023-10-10T07:55:54.766Z,9.63
2023-10-10T07:58:51.299Z,8.60
2023-10-10T08:01:20.016Z,8.57
2023-10-10T08:03:48.275Z,9.13
2023-10-10T08:06:23.897Z,9.40
2023-10-10T08:09:19.522Z,10.73
2023-10-10T08:11:47.582Z,9.50
2023-10-10T08:14:15.057Z,9.57
2023-10-10T08:16:44.714Z,9.30
2023-10-10T08:19:16.685Z,9.20
2023-10-10T08:21:53.098Z,11.03
2023-10-10T08:24:21.761Z,11.10
2023-10-10T08:26:52.574Z,9.83
2023-10-10T08:29:24.032Z,10.90
2023-10-10T08:31:53.124Z,9.97
2023-10-10T08:34:29.060Z,10.87
2023-10-10T08:37:04.339Z,9.97
2023-10-10T08:39:36.848Z,11.03
2023-10-10T08:42:12.771Z,10.50
2023-10-10T08:44:42.521Z,10.17
2023-10-10T08:47:20.592Z,11.10
2023-10-10T08:49:49.201Z,11.17
2023-10-10T08:52:21.427Z,9.97
2023-10-10T08:54:49.206Z,10.77
2023-10-10T08:57:25.935Z,10.93
2023-10-10T08:59:53.989Z,11.57
2023-10-10T09:02:21.726Z,10.27
2023-10-10T09:04:52.083Z,11.17
2023-10-10T09:07:24.750Z,11.73
2023-10-10T09:10:07.793Z,11.80
2023-10-10T09:12:49.426Z,11.33
2023-10-10T09:15:18.450Z,11.47
2023-10-10T09:17:47.083Z,11.13
2023-10-10T09:20:24.925Z,11.47
2023-10-10T09:23:18.558Z,11.60
2023-10-10T09:25:50.108Z,11.60
2023-10-10T09:28:20.145Z,11.20
2023-10-10T09:31:11.237Z,10.67
2023-10-10T09:33:44.013Z,10.63
2023-10-10T09:36:11.166Z,9.37
2023-10-10T09:38:45.326Z,8.90
2023-10-10T09:41:34.785Z,9.03
2023-10-10T09:44:24.218Z,9.47
2023-10-10T09:47:10.760Z,9.00
2023-10-10T09:49:48.146Z,8.77
2023-10-10T09:52:34.934Z,7.50
2023-10-10T09:55:15.597Z,7.73
2023-10-10T09:58:07.067Z,7.13
2023-10-10T10:00:39.513Z,7.03
2023-10-10T10:03:27.897Z,6.67
2023-10-10T10:06:06.883Z,6.27
2023-10-10T10:09:16.097Z,6.07
2023-10-10T10:11:58.042Z,6.20
2023-10-10T10:15:01.394Z,5.70
2023-10-10T10:17:55.951Z,5.77
2023-10-10T10:20:47.158Z,5.90
2023-10-10T10:23:27.919Z,5.17
2023-10-10T10:26:05.763Z,5.40
2023-10-10T10:28:39.197Z,5.10
2023-10-10T10:31:07.171Z,5.00
2023-10-10T10:33:35.043Z,5.77
2023-10-10T10:36:16.395Z,4.80
2023-10-10T10:39:05.033Z,4.47
2023-10-10T10:41:44.464Z,4.97
2023-10-10T10:44:14.247Z,4.10
2023-10-10T10:46:42.700Z,4.63
2023-10-10T10:49:13.761Z,4.23
2023-10-10T10:51:48.734Z,4.00
2023-10-10T10:54:39.289Z,5.43
2023-10-10T10:57:06.330Z,5.77
2023-10-10T10:59:46.721Z,5.20
2023-10-10T11:02:17.927Z,5.30
2023-10-10T11:04:51.813Z,6.57
2023-10-10T11:07:30.341Z,8.17
2023-10-10T11:10:17.585Z,7.00
2023-10-10T11:12:46.012Z,7.83
2023-10-10T11:15:13.107Z,7.90
2023-10-10T11:17:41.351Z,8.17
2023-10-10T11:20:27.805Z,9.60
2023-10-10T11:23:08.980Z,9.33
2023-10-10T11:25:48.278Z,8.03
2023-10-10T11:28:23.459Z,12.07
2023-10-10T11:30:52.353Z,8.57
2023-10-10T11:33:52.105Z,6.80
2023-10-10T11:36:41.130Z,5.33
2023-10-10T11:39:33.482Z,5.43
2023-10-10T11:42:05.838Z,4.10
2023-10-10T11:44:35.034Z,4.30
2023-10-10T11:47:08.724Z,3.80
2023-10-10T11:49:36.793Z,4.27
2023-10-10T11:52:05.276Z,4.07
2023-10-10T11:54:32.141Z,3.27
2023-10-10T11:57:01.122Z,4.20
2023-10-10T11:59:28.233Z,3.90
2023-10-10T12:02:15.518Z,4.73
2023-10-10T12:04:46.250Z,4.10
2023-10-10T12:07:15.713Z,4.67
2023-10-10T12:09:46.501Z,4.20
2023-10-10T12:12:14.534Z,4.00
2023-10-10T12:14:44.065Z,4.60
2023-10-10T12:17:12.003Z,4.63
2023-10-10T12:19:38.976Z,4.20
2023-10-10T12:22:10.220Z,4.20
2023-10-10T12:24:37.226Z,4.53
2023-10-10T12:27:08.505Z,4.00
2023-10-10T12:29:42.819Z,4.17
2023-10-10T12:32:17.470Z,4.37
2023-10-10T12:34:44.838Z,4.50
2023-10-10T12:37:12.064Z,4.70
2023-10-10T12:39:39.558Z,4.20
2023-10-10T12:42:08.984Z,3.80
2023-10-10T12:44:36.369Z,4.30
2023-10-10T12:47:07.953Z,4.40
2023-10-10T12:49:38.071Z,5.30
2023-10-10T12:52:13.663Z,4.97
2023-10-10T12:54:43.251Z,4.80
2023-10-10T12:57:15.505Z,5.10
2023-10-10T12:59:48.056Z,4.60
2023-10-10T13:02:17.301Z,4.67
2023-10-10T13:04:48.543Z,5.27
2023-10-10T13:07:17.855Z,5.40
2023-10-10T13:09:47.971Z,5.80
2023-10-10T13:12:29.079Z,5.60
2023-10-10T13:15:12.615Z,6.97
2023-10-10T13:17:51.732Z,5.73
2023-10-10T13:20:20.076Z,6.67
2023-10-10T13:22:51.978Z,7.30
2023-10-10T13:25:20.560Z,7.27
2023-10-10T13:27:47.785Z,7.53
2023-10-10T13:30:15.173Z,7.70
2023-10-10T13:32:43.128Z,6.60
2023-10-10T13:35:10.702Z,7.80
2023-10-10T13:37:42.450Z,8.60
2023-10-10T13:40:11.206Z,7.70
2023-10-10T13:42:41.869Z,8.80
2023-10-10T13:45:13.571Z,9.63
2023-10-10T13:47:42.053Z,8.57
2023-10-10T13:50:29.883Z,8.03
2023-10-10T13:52:57.093Z,8.63
2023-10-10T13:55:24.636Z,8.87
2023-10-10T13:57:51.554Z,9.53
2023-10-10T14:00:31.165Z,9.67
2023-10-10T14:03:07.501Z,10.33
2023-10-10T14:05:39.324Z,10.30
2023-10-10T14:08:19.325Z,9.73
2023-10-10T14:10:51.720Z,11.07
2023-10-10T14:13:23.027Z,10.83
2023-10-10T14:15:59.191Z,9.90
2023-10-10T14:18:31.333Z,11.37
2023-10-10T14:21:08.704Z,10.47
2023-10-10T14:23:40.686Z,11.07
2023-10-10T14:26:15.084Z,11.20
2023-10-10T14:28:43.311Z,12.37
2023-10-10T14:31:14.079Z,10.80
2023-10-10T14:33:42.065Z,12.03
2023-10-10T14:36:15.597Z,11.43
2023-10-10T14:38:46.310Z,12.30
2023-10-10T14:41:21.358Z,13.03
2023-10-10T14:43:53.638Z,14.47
2023-10-10T14:46:24.087Z,14.83
2023-10-10T14:49:07.644Z,13.77
2023-10-10T14:51:36.350Z,16.00
2023-10-10T14:54:13.482Z,16.10
2023-10-10T14:56:47.804Z,18.00
2023-10-10T14:59:20.264Z,16.83
2023-10-10T15:01:50.817Z,17.33
2023-10-10T15:04:22.970Z,20.67
2023-10-10T15:06:55.828Z,20.83
2023-10-10T15:09:27.021Z,20.67
2023-10-10T15:11:59.878Z,20.13
2023-10-10T15:14:27.339Z,20.17
2023-10-10T15:16:55.154Z,21.77
2023-10-10T15:19:22.174Z,20.73
2023-10-10T15:21:49.888Z,21.73
2023-10-10T15:24:17.277Z,20.73
2023-10-10T15:26:49.774Z,21.93
2023-10-10T15:29:18.207Z,21.33
2023-10-10T15:31:46.512Z,21.07
2023-10-10T15:34:17.787Z,21.47
2023-10-10T15:36:47.942Z,22.67
2023-10-10T15:39:17.517Z,21.97
2023-10-10T15:41:46.203Z,21.60
2023-10-10T15:44:17.164Z,23.00
2023-10-10T15:46:45.253Z,22.43
2023-10-10T15:51:46.309Z,20.50
2023-10-10T15:54:16.389Z,22.13
2023-10-10T15:56:44.181Z,21.73
2023-10-10T15:59:11.637Z,21.30
2023-10-10T16:01:38.849Z,22.57
2023-10-10T16:04:13.961Z,21.90
2023-10-10T16:06:48.968Z,21.07
2023-10-10T16:09:22.569Z,25.33
2023-10-10T16:11:58.331Z,24.60
2023-10-10T16:14:26.929Z,24.60
2023-10-10T16:16:54.441Z,22.47
2023-10-10T16:19:25.993Z,27.50
2023-10-10T16:21:54.726Z,25.17
2023-10-10T16:24:21.835Z,24.97
2023-10-10T16:27:00.536Z,26.27
2023-10-10T16:29:34.940Z,27.73
2023-10-10T16:32:09.930Z,25.07
2023-10-10T16:34:42.649Z,26.10
2023-10-10T16:37:15.552Z,25.43
2023-10-10T16:39:47.100Z,26.67
2023-10-10T16:42:16.509Z,25.00
2023-10-10T16:44:46.247Z,28.07
2023-10-10T16:47:18.573Z,28.70
2023-10-10T16:49:46.265Z,26.70
2023-10-10T16:52:13.216Z,29.60
2023-10-10T16:54:42.083Z,28.47
2023-10-10T16:57:12.460Z,27.90
2023-10-10T16:59:39.786Z,28.37
2023-10-10T17:02:07.133Z,26.73
2023-10-10T17:04:34.907Z,27.67
2023-10-10T17:07:01.664Z,27.87
2023-10-10T17:09:29.859Z,26.33
2023-10-10T17:12:04.445Z,28.30
2023-10-10T17:14:32.333Z,27.77
2023-10-10T17:16:59.235Z,30.30
2023-10-10T17:19:26.243Z,30.43
2023-10-10T17:21:53.492Z,29.03
2023-10-10T17:24:21.324Z,30.77
2023-10-10T17:26:48.739Z,28.23
2023-10-10T17:29:17.624Z,29.77
2023-10-10T17:31:44.706Z,29.17
2023-10-10T17:34:17.291Z,31.13
2023-10-10T17:36:44.718Z,30.83
2023-10-10T17:39:16.906Z,32.50
2023-10-10T17:41:49.371Z,29.30
2023-10-10T17:44:19.532Z,29.30
2023-10-10T17:46:48.336Z,28.87
2023-10-10T17:49:16.383Z,30.00
2023-10-10T17:51:46.198Z,30.20
2023-10-10T17:54:17.612Z,27.40
2023-10-10T17:56:46.050Z,27.80
2023-10-10T17:59:13.390Z,27.53
2023-10-10T18:01:40.341Z,28.00
2023-10-10T18:04:08.604Z,29.03
2023-10-10T18:06:36.406Z,27.57
2023-10-10T18:09:09.888Z,27.73
2023-10-10T18:11:38.246Z,25.30
2023-10-10T18:14:08.580Z,23.57
2023-10-10T18:16:38.722Z,22.93
2023-10-10T18:19:07.124Z,26.70
2023-10-10T18:21:34.592Z,23.93
2023-10-10T18:24:07.600Z,22.90
2023-10-10T18:26:39.177Z,24.27
2023-10-10T18:29:06.852Z,23.60
2023-10-10T18:31:35.982Z,23.40
2023-10-10T18:34:06.436Z,21.67
2023-10-10T18:36:38.483Z,24.80
2023-10-10T18:39:13.209Z,22.57
2023-10-10T18:41:44.163Z,21.37
2023-10-10T18:44:12.316Z,19.63
2023-10-10T18:46:39.610Z,18.10
2023-10-10T18:49:07.241Z,19.53
2023-10-10T18:51:34.268Z,17.90
2023-10-10T18:54:01.539Z,17.07
2023-10-10T18:56:28.717Z,16.83
2023-10-10T18:58:55.657Z,16.73
2023-10-10T19:01:23.470Z,15.53
2023-10-10T19:03:50.882Z,17.10
2023-10-10T19:06:21.709Z,15.13
2023-10-10T19:08:49.952Z,13.77
2023-10-10T19:11:24.897Z,14.07
2023-10-10T19:13:52.103Z,12.77
2023-10-10T19:16:19.870Z,12.70
2023-10-10T19:18:47.717Z,11.50
2023-10-10T19:21:17.177Z,14.60
2023-10-10T19:23:51.584Z,13.13
2023-10-10T19:26:19.211Z,13.13
2023-10-10T19:28:54.510Z,12.50
2023-10-10T19:31:24.241Z,11.67
2023-10-10T19:33:51.827Z,11.70
2023-10-10T19:36:21.546Z,11.90
2023-10-10T19:38:49.130Z,12.30
2023-10-10T19:41:16.296Z,11.03
2023-10-10T19:43:43.333Z,11.90
2023-10-10T19:46:13.661Z,12.00
2023-10-10T19:48:42.301Z,11.43
2023-10-10T19:51:19.610Z,10.50
2023-10-10T19:53:51.563Z,10.33
2023-10-10T19:56:19.035Z,10.20
2023-10-10T19:58:50.072Z,9.90
2023-10-10T20:01:17.566Z,9.23
2023-10-10T20:03:47.276Z,9.30
2023-10-10T20:06:22.049Z,8.90
2023-10-10T20:08:55.616Z,10.47
2023-10-10T20:11:25.649Z,9.40
2023-10-10T20:13:53.150Z,9.33
2023-10-10T20:16:22.062Z,9.57
2023-10-10T20:18:54.162Z,8.70
2023-10-10T20:21:21.191Z,10.23
2023-10-10T20:23:48.629Z,9.00
2023-10-10T20:26:19.560Z,9.23
2023-10-10T20:28:48.925Z,9.27
2023-10-10T20:31:19.027Z,9.63
2023-10-10T20:33:48.838Z,8.43
2023-10-10T20:36:16.941Z,8.93
2023-10-10T20:38:44.698Z,8.53
2023-10-10T20:41:13.090Z,9.00
2023-10-10T20:43:41.743Z,8.37
2023-10-10T20:46:08.933Z,8.57
2023-10-10T20:48:35.907Z,7.77
2023-10-10T20:51:04.550Z,9.17
2023-10-10T20:53:32.105Z,9.10
2023-10-10T20:55:59.211Z,8.57
2023-10-10T20:58:26.093Z,8.20
2023-10-10T21:00:52.957Z,8.17
2023-10-10T21:03:20.200Z,9.37
2023-10-10T21:05:48.877Z,9.10
2023-10-10T21:08:28.705Z,8.87
2023-10-10T21:10:55.714Z,7.97
2023-10-10T21:13:23.066Z,8.73
2023-10-10T21:15:50.772Z,9.00
2023-10-10T21:18:19.968Z,8.03
2023-10-10T21:21:00.243Z,9.03
2023-10-10T21:23:30.105Z,9.37
2023-10-10T21:25:56.993Z,9.03
2023-10-10T21:28:24.219Z,9.07
2023-10-10T21:30:51.181Z,8.83
2023-10-10T21:33:18.630Z,8.37
2023-10-10T21:35:45.843Z,8.63
2023-10-10T21:38:12.858Z,8.87
2023-10-10T21:40:41.413Z,8.70
2023-10-10T21:43:11.640Z,8.67
2023-10-10T21:45:40.409Z,8.53
2023-10-10T21:48:11.653Z,8.03
2023-10-10T21:50:42.100Z,8.60
2023-10-10T21:53:09.389Z,8.47
2023-10-10T21:55:38.868Z,8.27
2023-10-10T21:58:15.049Z,8.10
2023-10-10T22:00:42.124Z,8.80
2023-10-10T22:03:09.240Z,8.70
2023-10-10T22:05:38.687Z,10.07
2023-10-10T22:08:07.849Z,8.67
2023-10-10T22:10:36.959Z,8.87
2023-10-10T22:13:07.533Z,9.30
2023-10-10T22:15:36.631Z,9.73
2023-10-10T22:18:08.016Z,9.53
2023-10-10T22:20:35.572Z,9.73
2023-10-10T22:23:02.720Z,9.57
2023-10-10T22:25:33.399Z,9.20
2023-10-10T22:28:01.641Z,9.60
2023-10-10T22:30:34.017Z,9.57
2023-10-10T22:33:01.460Z,9.77
2023-10-10T22:35:30.343Z,10.60
2023-10-10T22:37:57.650Z,9.60
2023-10-10T22:40:28.383Z,9.77
2023-10-10T22:43:04.940Z,10.43
2023-10-10T22:45:34.633Z,10.10
2023-10-10T22:48:04.796Z,9.47
2023-10-10T22:50:32.348Z,10.27
2023-10-10T22:53:02.499Z,10.03
2023-10-10T22:55:34.840Z,10.53
2023-10-10T22:58:07.960Z,9.53
2023-10-10T23:00:40.039Z,9.03
2023-10-10T23:03:12.336Z,9.70
2023-10-10T23:05:40.944Z,10.20
2023-10-10T23:08:08.237Z,9.87
2023-10-10T23:10:35.859Z,10.33
2023-10-10T23:13:03.583Z,10.37
2023-10-10T23:15:30.800Z,10.03
2023-10-10T23:18:00.582Z,10.00
2023-10-10T23:20:28.948Z,10.70
2023-10-10T23:23:04.272Z,10.27
2023-10-10T23:25:32.887Z,9.83
2023-10-10T23:28:00.342Z,9.37
2023-10-10T23:30:28.977Z,9.13
2023-10-10T23:33:20.670Z,10.20
2023-10-10T23:35:50.095Z,10.13
2023-10-10T23:38:20.938Z,8.83
2023-10-10T23:40:47.996Z,9.77
2023-10-10T23:43:20.479Z,9.03
2023-10-10T23:45:55.975Z,9.20
2023-10-10T23:48:30.592Z,9.87
2023-10-10T23:50:58.313Z,8.93
2023-10-10T23:53:25.832Z,8.83
2023-10-10T23:55:56.529Z,8.90
2023-10-10T23:58:26.811Z,9.67
